Kudat Airport


Codes: WBKT/KUD
Name: Kudat Airport
City: Kudat
Country: Malaysia
Elevation: 10 ft.

Photos at Kudat Airport


   Photos courtesy of SpottingLog. You can add your own sightings and photos by signing up for a free trial today.



No photos found.

Weather at Kudat Airport


Time (UTC)DescriptionTempratureWindCloud coverageVisibilityPressureHumidity
19-Apr-2024 06:00Clear Sky30°C16 mph, E5%10000m1008hPa63%
19-Apr-2024 09:00Broken Clouds29°C16 mph, E68%10000m1007hPa67%
19-Apr-2024 12:00Overcast Clouds28°C11 mph, E86%10000m1008hPa77%
19-Apr-2024 15:00Scattered Clouds27°C11 mph, E46%10000m1009hPa80%
19-Apr-2024 18:00Broken Clouds26°C11 mph, SE59%10000m1008hPa84%
19-Apr-2024 21:00Scattered Clouds26°C11 mph, SE47%10000m1008hPa86%
20-Apr-2024 00:00Scattered Clouds27°C11 mph, E48%10000m1009hPa78%
20-Apr-2024 03:00Scattered Clouds30°C13 mph, E31%10000m1009hPa63%
20-Apr-2024 06:00Broken Clouds30°C20 mph, E58%10000m1006hPa68%
20-Apr-2024 09:00Overcast Clouds29°C16 mph, E86%10000m1006hPa72%
20-Apr-2024 12:00Overcast Clouds28°C13 mph, E90%10000m1008hPa78%
20-Apr-2024 15:00Light Rain27°C13 mph, E29%10000m1009hPa84%
20-Apr-2024 18:00Light Rain27°C11 mph, E27%10000m1007hPa86%
20-Apr-2024 21:00Overcast Clouds26°C13 mph, SE88%10000m1007hPa86%
21-Apr-2024 00:00Overcast Clouds28°C11 mph, E90%10000m1009hPa77%
21-Apr-2024 03:00Overcast Clouds31°C13 mph, NE98%10000m1009hPa63%
21-Apr-2024 06:00Broken Clouds30°C16 mph, NE74%10000m1006hPa70%
21-Apr-2024 09:00Light Rain29°C13 mph, E19%10000m1006hPa75%
21-Apr-2024 12:00Light Rain28°C11 mph, E14%10000m1008hPa79%
21-Apr-2024 15:00Light Rain28°C11 mph, E82%10000m1009hPa82%
21-Apr-2024 18:00Overcast Clouds26°C9 mph, SE91%10000m1007hPa86%
21-Apr-2024 21:00Overcast Clouds26°C11 mph, SE100%10000m1007hPa87%
22-Apr-2024 00:00Overcast Clouds28°C11 mph, SE100%10000m1009hPa77%
22-Apr-2024 03:00Overcast Clouds30°C11 mph, NE92%10000m1009hPa65%
22-Apr-2024 06:00Overcast Clouds31°C16 mph, NE96%10000m1006hPa67%
22-Apr-2024 09:00Overcast Clouds29°C13 mph, E95%10000m1006hPa70%
22-Apr-2024 12:00Overcast Clouds28°C9 mph, E85%10000m1008hPa81%
22-Apr-2024 15:00Scattered Clouds27°C9 mph, E42%10000m1009hPa83%
22-Apr-2024 18:00Broken Clouds26°C9 mph, SE70%10000m1007hPa86%
22-Apr-2024 21:00Overcast Clouds26°C7 mph, SE96%10000m1007hPa86%
23-Apr-2024 00:00Overcast Clouds28°C7 mph, SE94%10000m1009hPa75%
23-Apr-2024 03:00Overcast Clouds31°C9 mph, NE94%10000m1008hPa64%
23-Apr-2024 06:00Light Rain30°C11 mph, NE96%10000m1006hPa69%
23-Apr-2024 09:00Light Rain28°C9 mph, E98%10000m1006hPa80%
23-Apr-2024 12:00Light Rain27°C11 mph, E99%10000m1008hPa86%
23-Apr-2024 15:00Light Rain27°C11 mph, E91%10000m1009hPa84%
23-Apr-2024 18:00Broken Clouds27°C11 mph, E84%10000m1007hPa85%
23-Apr-2024 21:00Overcast Clouds26°C9 mph, SE100%10000m1007hPa86%
24-Apr-2024 00:00Overcast Clouds28°C9 mph, SE100%10000m1009hPa74%
24-Apr-2024 03:00Overcast Clouds31°C11 mph, NE100%10000m1008hPa62%